sensor_id;sensor_type;location;lat;lon;timestamp;P1;durP1;ratioP1;P2;durP2;ratioP2
43817;SDS011;29868;47.360;18.984;2023-03-03T00:31:11;66.30;;;30.00;;
43817;SDS011;29868;47.360;18.984;2023-03-03T00:33:51;70.97;;;30.65;;
43817;SDS011;29868;47.360;18.984;2023-03-03T00:36:30;72.45;;;30.80;;
43817;SDS011;29868;47.360;18.984;2023-03-03T00:39:17;69.32;;;32.38;;
43817;SDS011;29868;47.360;18.984;2023-03-03T00:41:59;66.00;;;29.20;;
43817;SDS011;29868;47.360;18.984;2023-03-03T00:44:38;69.05;;;29.08;;
43817;SDS011;29868;47.360;18.984;2023-03-03T00:47:17;68.63;;;28.55;;
43817;SDS011;29868;47.360;18.984;2023-03-03T00:49:47;67.43;;;29.65;;
43817;SDS011;29868;47.360;18.984;2023-03-03T00:52:13;67.35;;;29.30;;
43817;SDS011;29868;47.360;18.984;2023-03-03T00:54:41;68.97;;;29.20;;
43817;SDS011;29868;47.360;18.984;2023-03-03T00:57:06;60.90;;;27.63;;
43817;SDS011;29868;47.360;18.984;2023-03-03T00:59:32;65.32;;;28.70;;
43817;SDS011;29868;47.360;18.984;2023-03-03T01:01:57;67.53;;;29.90;;
43817;SDS011;29868;47.360;18.984;2023-03-03T01:04:23;63.85;;;29.42;;
43817;SDS011;29868;47.360;18.984;2023-03-03T01:06:48;64.70;;;29.50;;
43817;SDS011;29868;47.360;18.984;2023-03-03T01:09:14;68.78;;;30.08;;
43817;SDS011;29868;47.360;18.984;2023-03-03T01:11:39;63.00;;;31.05;;
43817;SDS011;29868;47.360;18.984;2023-03-03T01:14:05;60.80;;;29.52;;
43817;SDS011;29868;47.360;18.984;2023-03-03T01:16:30;62.78;;;29.25;;
43817;SDS011;29868;47.360;18.984;2023-03-03T01:18:56;60.78;;;29.55;;
43817;SDS011;29868;47.360;18.984;2023-03-03T01:21:22;63.90;;;29.73;;
43817;SDS011;29868;47.360;18.984;2023-03-03T01:23:47;58.08;;;28.52;;
43817;SDS011;29868;47.360;18.984;2023-03-03T01:26:13;67.78;;;31.10;;
43817;SDS011;29868;47.360;18.984;2023-03-03T01:28:38;62.22;;;29.17;;
43817;SDS011;29868;47.360;18.984;2023-03-03T01:31:04;60.20;;;28.63;;
43817;SDS011;29868;47.360;18.984;2023-03-03T01:33:30;65.43;;;29.75;;
43817;SDS011;29868;47.360;18.984;2023-03-03T01:35:57;59.88;;;29.02;;
43817;SDS011;29868;47.360;18.984;2023-03-03T01:38:22;53.63;;;28.05;;
43817;SDS011;29868;47.360;18.984;2023-03-03T01:40:52;61.08;;;27.38;;
43817;SDS011;29868;47.360;18.984;2023-03-03T01:43:18;60.65;;;29.88;;
43817;SDS011;29868;47.360;18.984;2023-03-03T01:48:22;57.17;;;27.58;;
43817;SDS011;29868;47.360;18.984;2023-03-03T01:53:51;62.10;;;28.85;;
43817;SDS011;29868;47.360;18.984;2023-03-03T01:56:18;61.33;;;30.17;;
43817;SDS011;29868;47.360;18.984;2023-03-03T01:58:45;68.10;;;31.48;;
43817;SDS011;29868;47.360;18.984;2023-03-03T02:01:21;66.88;;;30.65;;
43817;SDS011;29868;47.360;18.984;2023-03-03T02:03:48;65.43;;;31.10;;
43817;SDS011;29868;47.360;18.984;2023-03-03T02:06:15;64.95;;;30.63;;
43817;SDS011;29868;47.360;18.984;2023-03-03T02:08:59;65.22;;;31.90;;
43817;SDS011;29868;47.360;18.984;2023-03-03T02:11:33;64.03;;;31.33;;
43817;SDS011;29868;47.360;18.984;2023-03-03T02:14:01;63.88;;;31.02;;
43817;SDS011;29868;47.360;18.984;2023-03-03T02:16:27;58.72;;;30.33;;
43817;SDS011;29868;47.360;18.984;2023-03-03T02:18:52;65.43;;;30.70;;
43817;SDS011;29868;47.360;18.984;2023-03-03T02:21:19;60.05;;;30.92;;
43817;SDS011;29868;47.360;18.984;2023-03-03T02:24:23;61.92;;;30.67;;
43817;SDS011;29868;47.360;18.984;2023-03-03T02:26:47;58.70;;;28.60;;
43817;SDS011;29868;47.360;18.984;2023-03-03T02:29:12;62.53;;;30.05;;
43817;SDS011;29868;47.360;18.984;2023-03-03T02:31:38;62.03;;;29.30;;
43817;SDS011;29868;47.360;18.984;2023-03-03T02:34:04;63.75;;;29.50;;
43817;SDS011;29868;47.360;18.984;2023-03-03T02:36:31;61.72;;;30.30;;
43817;SDS011;29868;47.360;18.984;2023-03-03T02:44:24;64.38;;;30.60;;
43817;SDS011;29868;47.360;18.984;2023-03-03T02:46:52;63.08;;;29.95;;
43817;SDS011;29868;47.360;18.984;2023-03-03T02:49:20;65.97;;;30.75;;
43817;SDS011;29868;47.360;18.984;2023-03-03T02:51:48;59.15;;;29.92;;
43817;SDS011;29868;47.360;18.984;2023-03-03T02:54:14;64.40;;;31.25;;
43817;SDS011;29868;47.360;18.984;2023-03-03T02:56:41;67.53;;;32.50;;
43817;SDS011;29868;47.360;18.984;2023-03-03T02:59:07;69.75;;;31.60;;
43817;SDS011;29868;47.360;18.984;2023-03-03T03:01:33;63.67;;;32.17;;
43817;SDS011;29868;47.360;18.984;2023-03-03T03:04:06;65.85;;;31.73;;
43817;SDS011;29868;47.360;18.984;2023-03-03T03:06:34;68.68;;;31.30;;
43817;SDS011;29868;47.360;18.984;2023-03-03T03:08:59;63.45;;;31.67;;
43817;SDS011;29868;47.360;18.984;2023-03-03T03:11:25;66.07;;;31.58;;
43817;SDS011;29868;47.360;18.984;2023-03-03T03:13:50;65.47;;;32.92;;
43817;SDS011;29868;47.360;18.984;2023-03-03T03:16:16;62.17;;;32.03;;
43817;SDS011;29868;47.360;18.984;2023-03-03T03:18:42;63.50;;;32.10;;
43817;SDS011;29868;47.360;18.984;2023-03-03T03:21:08;61.40;;;29.98;;
43817;SDS011;29868;47.360;18.984;2023-03-03T03:23:35;65.50;;;31.10;;
43817;SDS011;29868;47.360;18.984;2023-03-03T03:26:00;59.97;;;30.42;;
43817;SDS011;29868;47.360;18.984;2023-03-03T03:28:26;71.38;;;31.92;;
43817;SDS011;29868;47.360;18.984;2023-03-03T03:30:51;64.90;;;31.42;;
43817;SDS011;29868;47.360;18.984;2023-03-03T03:33:17;64.68;;;29.55;;
43817;SDS011;29868;47.360;18.984;2023-03-03T03:35:43;61.50;;;31.63;;
43817;SDS011;29868;47.360;18.984;2023-03-03T03:38:11;61.35;;;30.85;;
43817;SDS011;29868;47.360;18.984;2023-03-03T03:40:37;64.90;;;29.88;;
43817;SDS011;29868;47.360;18.984;2023-03-03T03:43:03;66.05;;;30.92;;
43817;SDS011;29868;47.360;18.984;2023-03-03T03:45:29;59.85;;;30.17;;
43817;SDS011;29868;47.360;18.984;2023-03-03T03:47:54;63.75;;;29.27;;
43817;SDS011;29868;47.360;18.984;2023-03-03T03:50:19;61.83;;;30.20;;
43817;SDS011;29868;47.360;18.984;2023-03-03T03:52:45;61.10;;;31.00;;
43817;SDS011;29868;47.360;18.984;2023-03-03T03:55:11;63.05;;;30.13;;
43817;SDS011;29868;47.360;18.984;2023-03-03T03:57:37;61.63;;;30.50;;
43817;SDS011;29868;47.360;18.984;2023-03-03T04:00:03;58.47;;;29.52;;
43817;SDS011;29868;47.360;18.984;2023-03-03T04:02:29;59.00;;;28.77;;
43817;SDS011;29868;47.360;18.984;2023-03-03T04:04:55;57.35;;;29.02;;
43817;SDS011;29868;47.360;18.984;2023-03-03T04:07:20;57.55;;;29.23;;
43817;SDS011;29868;47.360;18.984;2023-03-03T04:09:46;56.08;;;28.15;;
43817;SDS011;29868;47.360;18.984;2023-03-03T04:12:11;59.05;;;29.38;;
43817;SDS011;29868;47.360;18.984;2023-03-03T04:14:37;60.55;;;29.20;;
43817;SDS011;29868;47.360;18.984;2023-03-03T04:17:02;55.08;;;28.73;;
43817;SDS011;29868;47.360;18.984;2023-03-03T04:19:28;58.95;;;29.08;;
43817;SDS011;29868;47.360;18.984;2023-03-03T04:21:53;59.58;;;29.35;;
43817;SDS011;29868;47.360;18.984;2023-03-03T04:24:18;61.60;;;28.25;;
43817;SDS011;29868;47.360;18.984;2023-03-03T04:26:44;58.58;;;28.48;;
43817;SDS011;29868;47.360;18.984;2023-03-03T04:29:10;58.65;;;29.67;;
43817;SDS011;29868;47.360;18.984;2023-03-03T04:31:35;59.03;;;28.88;;
43817;SDS011;29868;47.360;18.984;2023-03-03T04:34:01;58.03;;;29.40;;
43817;SDS011;29868;47.360;18.984;2023-03-03T04:36:26;55.55;;;29.42;;
43817;SDS011;29868;47.360;18.984;2023-03-03T04:38:52;55.75;;;28.58;;
43817;SDS011;29868;47.360;18.984;2023-03-03T04:41:17;59.50;;;29.65;;
43817;SDS011;29868;47.360;18.984;2023-03-03T04:43:43;57.22;;;29.70;;
43817;SDS011;29868;47.360;18.984;2023-03-03T04:46:08;59.83;;;29.75;;
43817;SDS011;29868;47.360;18.984;2023-03-03T04:48:33;57.42;;;29.20;;
43817;SDS011;29868;47.360;18.984;2023-03-03T04:50:59;61.22;;;30.58;;
43817;SDS011;29868;47.360;18.984;2023-03-03T04:53:24;54.63;;;29.02;;
43817;SDS011;29868;47.360;18.984;2023-03-03T04:55:53;57.67;;;29.00;;
43817;SDS011;29868;47.360;18.984;2023-03-03T04:58:18;61.03;;;29.25;;
43817;SDS011;29868;47.360;18.984;2023-03-03T05:00:52;58.60;;;30.25;;
43817;SDS011;29868;47.360;18.984;2023-03-03T05:03:19;52.97;;;28.25;;
43817;SDS011;29868;47.360;18.984;2023-03-03T05:05:45;57.35;;;29.80;;
43817;SDS011;29868;47.360;18.984;2023-03-03T05:08:11;59.38;;;28.80;;
43817;SDS011;29868;47.360;18.984;2023-03-03T05:10:37;63.60;;;31.40;;
43817;SDS011;29868;47.360;18.984;2023-03-03T05:13:03;59.42;;;29.75;;
43817;SDS011;29868;47.360;18.984;2023-03-03T05:15:29;61.58;;;31.17;;
43817;SDS011;29868;47.360;18.984;2023-03-03T05:17:55;62.45;;;32.63;;
43817;SDS011;29868;47.360;18.984;2023-03-03T05:20:20;62.30;;;30.88;;
43817;SDS011;29868;47.360;18.984;2023-03-03T05:22:46;60.35;;;30.75;;
43817;SDS011;29868;47.360;18.984;2023-03-03T05:25:12;57.67;;;29.52;;
43817;SDS011;29868;47.360;18.984;2023-03-03T05:27:37;57.78;;;27.33;;
43817;SDS011;29868;47.360;18.984;2023-03-03T05:30:03;56.90;;;27.75;;
43817;SDS011;29868;47.360;18.984;2023-03-03T05:32:29;58.33;;;28.13;;
43817;SDS011;29868;47.360;18.984;2023-03-03T05:34:54;56.75;;;28.10;;
43817;SDS011;29868;47.360;18.984;2023-03-03T05:37:20;57.28;;;28.70;;
43817;SDS011;29868;47.360;18.984;2023-03-03T05:39:45;59.58;;;28.52;;
43817;SDS011;29868;47.360;18.984;2023-03-03T05:42:11;55.92;;;28.38;;
43817;SDS011;29868;47.360;18.984;2023-03-03T05:44:37;55.85;;;27.15;;
43817;SDS011;29868;47.360;18.984;2023-03-03T05:47:02;56.25;;;27.00;;
43817;SDS011;29868;47.360;18.984;2023-03-03T05:49:28;53.63;;;27.25;;
43817;SDS011;29868;47.360;18.984;2023-03-03T05:51:53;52.92;;;26.58;;
43817;SDS011;29868;47.360;18.984;2023-03-03T05:54:19;53.25;;;26.55;;
43817;SDS011;29868;47.360;18.984;2023-03-03T05:56:44;56.28;;;26.88;;
43817;SDS011;29868;47.360;18.984;2023-03-03T05:59:10;53.40;;;26.48;;
43817;SDS011;29868;47.360;18.984;2023-03-03T06:01:35;51.20;;;26.23;;
43817;SDS011;29868;47.360;18.984;2023-03-03T06:04:00;51.50;;;25.85;;
43817;SDS011;29868;47.360;18.984;2023-03-03T06:06:26;66.65;;;31.45;;
43817;SDS011;29868;47.360;18.984;2023-03-03T06:08:52;71.82;;;34.28;;
43817;SDS011;29868;47.360;18.984;2023-03-03T06:11:18;77.85;;;35.35;;
43817;SDS011;29868;47.360;18.984;2023-03-03T06:13:43;81.95;;;35.72;;
43817;SDS011;29868;47.360;18.984;2023-03-03T06:16:09;73.30;;;33.20;;
43817;SDS011;29868;47.360;18.984;2023-03-03T06:18:34;68.45;;;32.22;;
43817;SDS011;29868;47.360;18.984;2023-03-03T06:21:00;64.20;;;31.55;;
43817;SDS011;29868;47.360;18.984;2023-03-03T06:23:25;66.75;;;32.40;;
43817;SDS011;29868;47.360;18.984;2023-03-03T06:25:51;71.22;;;33.03;;
43817;SDS011;29868;47.360;18.984;2023-03-03T06:28:17;67.45;;;33.65;;
43817;SDS011;29868;47.360;18.984;2023-03-03T06:30:43;66.18;;;32.08;;
43817;SDS011;29868;47.360;18.984;2023-03-03T06:33:09;78.68;;;35.25;;
43817;SDS011;29868;47.360;18.984;2023-03-03T06:35:34;75.60;;;34.72;;
43817;SDS011;29868;47.360;18.984;2023-03-03T06:38:00;69.22;;;32.58;;
43817;SDS011;29868;47.360;18.984;2023-03-03T06:40:26;76.05;;;32.97;;
43817;SDS011;29868;47.360;18.984;2023-03-03T06:42:51;60.38;;;30.90;;
43817;SDS011;29868;47.360;18.984;2023-03-03T06:45:16;67.35;;;30.80;;
43817;SDS011;29868;47.360;18.984;2023-03-03T06:47:42;59.58;;;28.33;;
43817;SDS011;29868;47.360;18.984;2023-03-03T06:50:09;58.67;;;28.75;;
43817;SDS011;29868;47.360;18.984;2023-03-03T06:52:35;58.38;;;29.52;;
43817;SDS011;29868;47.360;18.984;2023-03-03T06:55:01;56.28;;;28.60;;
43817;SDS011;29868;47.360;18.984;2023-03-03T06:57:36;60.15;;;29.50;;
43817;SDS011;29868;47.360;18.984;2023-03-03T07:02:49;61.60;;;31.30;;
43817;SDS011;29868;47.360;18.984;2023-03-03T07:05:21;60.60;;;31.25;;
43817;SDS011;29868;47.360;18.984;2023-03-03T07:07:49;61.50;;;30.90;;
43817;SDS011;29868;47.360;18.984;2023-03-03T07:10:22;63.65;;;32.60;;
43817;SDS011;29868;47.360;18.984;2023-03-03T07:12:50;64.88;;;32.67;;
43817;SDS011;29868;47.360;18.984;2023-03-03T07:15:20;65.78;;;33.50;;
43817;SDS011;29868;47.360;18.984;2023-03-03T07:17:49;81.80;;;38.75;;
43817;SDS011;29868;47.360;18.984;2023-03-03T07:20:23;77.65;;;40.30;;
43817;SDS011;29868;47.360;18.984;2023-03-03T07:22:52;79.88;;;40.83;;
43817;SDS011;29868;47.360;18.984;2023-03-03T07:27:55;88.03;;;43.88;;
43817;SDS011;29868;47.360;18.984;2023-03-03T07:30:25;88.38;;;46.85;;
43817;SDS011;29868;47.360;18.984;2023-03-03T07:32:53;97.70;;;48.90;;
43817;SDS011;29868;47.360;18.984;2023-03-03T07:37:59;89.28;;;44.97;;
43817;SDS011;29868;47.360;18.984;2023-03-03T07:40:37;65.22;;;33.95;;
43817;SDS011;29868;47.360;18.984;2023-03-03T07:48:40;50.85;;;25.80;;
43817;SDS011;29868;47.360;18.984;2023-03-03T07:53:44;50.97;;;26.23;;
43817;SDS011;29868;47.360;18.984;2023-03-03T07:56:15;50.88;;;26.35;;
43817;SDS011;29868;47.360;18.984;2023-03-03T07:58:54;48.85;;;25.52;;
43817;SDS011;29868;47.360;18.984;2023-03-03T08:01:37;49.45;;;26.00;;
43817;SDS011;29868;47.360;18.984;2023-03-03T08:06:57;50.92;;;27.17;;
43817;SDS011;29868;47.360;18.984;2023-03-03T08:14:32;50.35;;;26.23;;
43817;SDS011;29868;47.360;18.984;2023-03-03T08:17:00;57.80;;;27.10;;
43817;SDS011;29868;47.360;18.984;2023-03-03T08:19:26;43.53;;;24.63;;
43817;SDS011;29868;47.360;18.984;2023-03-03T08:22:01;51.10;;;25.70;;
43817;SDS011;29868;47.360;18.984;2023-03-03T08:24:36;57.03;;;28.80;;
43817;SDS011;29868;47.360;18.984;2023-03-03T08:27:01;59.13;;;29.17;;
43817;SDS011;29868;47.360;18.984;2023-03-03T08:29:26;57.75;;;28.63;;
43817;SDS011;29868;47.360;18.984;2023-03-03T08:31:52;48.13;;;24.50;;
43817;SDS011;29868;47.360;18.984;2023-03-03T08:34:17;52.70;;;26.42;;
43817;SDS011;29868;47.360;18.984;2023-03-03T08:36:43;50.03;;;25.13;;
43817;SDS011;29868;47.360;18.984;2023-03-03T08:39:08;44.17;;;24.08;;
43817;SDS011;29868;47.360;18.984;2023-03-03T08:41:34;46.50;;;23.65;;
43817;SDS011;29868;47.360;18.984;2023-03-03T08:43:59;46.10;;;26.30;;
43817;SDS011;29868;47.360;18.984;2023-03-03T08:46:25;50.47;;;25.90;;
43817;SDS011;29868;47.360;18.984;2023-03-03T08:48:50;47.47;;;24.92;;
43817;SDS011;29868;47.360;18.984;2023-03-03T08:51:16;46.22;;;23.50;;
43817;SDS011;29868;47.360;18.984;2023-03-03T08:53:42;43.70;;;23.45;;
43817;SDS011;29868;47.360;18.984;2023-03-03T08:56:07;43.40;;;24.08;;
43817;SDS011;29868;47.360;18.984;2023-03-03T08:58:34;47.97;;;25.70;;
43817;SDS011;29868;47.360;18.984;2023-03-03T09:00:59;45.65;;;25.08;;
43817;SDS011;29868;47.360;18.984;2023-03-03T09:03:25;46.63;;;24.65;;
43817;SDS011;29868;47.360;18.984;2023-03-03T09:05:50;48.10;;;25.05;;
43817;SDS011;29868;47.360;18.984;2023-03-03T09:08:16;45.42;;;23.40;;
43817;SDS011;29868;47.360;18.984;2023-03-03T09:10:41;41.60;;;22.48;;
43817;SDS011;29868;47.360;18.984;2023-03-03T09:13:11;45.42;;;23.52;;
43817;SDS011;29868;47.360;18.984;2023-03-03T09:15:39;43.25;;;23.63;;
43817;SDS011;29868;47.360;18.984;2023-03-03T09:18:30;40.88;;;22.02;;
43817;SDS011;29868;47.360;18.984;2023-03-03T09:20:56;42.30;;;22.13;;
43817;SDS011;29868;47.360;18.984;2023-03-03T09:31:40;41.83;;;22.02;;
43817;SDS011;29868;47.360;18.984;2023-03-03T09:34:12;36.75;;;20.27;;
43817;SDS011;29868;47.360;18.984;2023-03-03T09:36:44;37.55;;;19.48;;
43817;SDS011;29868;47.360;18.984;2023-03-03T09:39:16;35.78;;;19.38;;
43817;SDS011;29868;47.360;18.984;2023-03-03T09:41:58;37.78;;;19.08;;
43817;SDS011;29868;47.360;18.984;2023-03-03T09:58:21;37.63;;;21.08;;
43817;SDS011;29868;47.360;18.984;2023-03-03T10:03:43;32.97;;;17.77;;
43817;SDS011;29868;47.360;18.984;2023-03-03T10:24:30;26.92;;;16.00;;
43817;SDS011;29868;47.360;18.984;2023-03-03T10:27:11;31.92;;;16.15;;
43817;SDS011;29868;47.360;18.984;2023-03-03T10:29:50;34.55;;;18.90;;
43817;SDS011;29868;47.360;18.984;2023-03-03T10:51:30;27.08;;;14.73;;
43817;SDS011;29868;47.360;18.984;2023-03-03T10:57:29;26.23;;;14.23;;
43817;SDS011;29868;47.360;18.984;2023-03-03T11:11:11;25.15;;;14.15;;
43817;SDS011;29868;47.360;18.984;2023-03-03T11:34:06;23.25;;;12.15;;
43817;SDS011;29868;47.360;18.984;2023-03-03T11:36:52;24.58;;;13.40;;
43817;SDS011;29868;47.360;18.984;2023-03-03T11:39:17;20.75;;;12.65;;
43817;SDS011;29868;47.360;18.984;2023-03-03T11:49:30;16.10;;;9.40;;
43817;SDS011;29868;47.360;18.984;2023-03-03T11:55:08;19.95;;;10.60;;
43817;SDS011;29868;47.360;18.984;2023-03-03T11:57:45;17.45;;;10.18;;
43817;SDS011;29868;47.360;18.984;2023-03-03T12:03:12;20.63;;;10.15;;
43817;SDS011;29868;47.360;18.984;2023-03-03T12:05:44;19.70;;;10.25;;
43817;SDS011;29868;47.360;18.984;2023-03-03T12:08:32;17.30;;;8.73;;
43817;SDS011;29868;47.360;18.984;2023-03-03T12:13:49;16.30;;;8.60;;
43817;SDS011;29868;47.360;18.984;2023-03-03T12:22:06;16.67;;;8.57;;
43817;SDS011;29868;47.360;18.984;2023-03-03T12:24:47;17.75;;;10.07;;
43817;SDS011;29868;47.360;18.984;2023-03-03T12:30:45;17.90;;;9.25;;
43817;SDS011;29868;47.360;18.984;2023-03-03T12:38:29;17.70;;;9.65;;
43817;SDS011;29868;47.360;18.984;2023-03-03T12:46:34;17.17;;;9.35;;
43817;SDS011;29868;47.360;18.984;2023-03-03T12:49:06;17.58;;;9.45;;
43817;SDS011;29868;47.360;18.984;2023-03-03T12:54:48;20.40;;;10.73;;
43817;SDS011;29868;47.360;18.984;2023-03-03T12:57:22;17.20;;;9.57;;
43817;SDS011;29868;47.360;18.984;2023-03-03T13:00:18;17.63;;;10.20;;
43817;SDS011;29868;47.360;18.984;2023-03-03T13:08:52;19.30;;;10.10;;
43817;SDS011;29868;47.360;18.984;2023-03-03T13:22:43;18.45;;;10.25;;
43817;SDS011;29868;47.360;18.984;2023-03-03T13:28:32;20.80;;;10.50;;
43817;SDS011;29868;47.360;18.984;2023-03-03T13:31:37;18.73;;;10.18;;
43817;SDS011;29868;47.360;18.984;2023-03-03T13:34:03;18.05;;;10.52;;
43817;SDS011;29868;47.360;18.984;2023-03-03T13:39:13;20.73;;;11.13;;
43817;SDS011;29868;47.360;18.984;2023-03-03T13:41:55;18.63;;;10.48;;
43817;SDS011;29868;47.360;18.984;2023-03-03T13:44:43;19.52;;;10.38;;
43817;SDS011;29868;47.360;18.984;2023-03-03T14:06:22;19.23;;;10.25;;
43817;SDS011;29868;47.360;18.984;2023-03-03T14:14:31;19.85;;;10.45;;
43817;SDS011;29868;47.360;18.984;2023-03-03T14:17:18;19.67;;;10.68;;
43817;SDS011;29868;47.360;18.984;2023-03-03T14:22:56;18.77;;;10.77;;
43817;SDS011;29868;47.360;18.984;2023-03-03T14:25:23;19.67;;;11.25;;
43817;SDS011;29868;47.360;18.984;2023-03-03T14:27:58;18.48;;;10.85;;
43817;SDS011;29868;47.360;18.984;2023-03-03T14:30:28;20.10;;;11.30;;
43817;SDS011;29868;47.360;18.984;2023-03-03T14:35:38;20.85;;;11.82;;
43817;SDS011;29868;47.360;18.984;2023-03-03T14:40:33;21.70;;;11.60;;
43817;SDS011;29868;47.360;18.984;2023-03-03T14:43:02;20.63;;;11.93;;
43817;SDS011;29868;47.360;18.984;2023-03-03T14:45:42;20.08;;;11.52;;
43817;SDS011;29868;47.360;18.984;2023-03-03T14:48:18;24.83;;;13.70;;
43817;SDS011;29868;47.360;18.984;2023-03-03T14:50:56;22.65;;;13.35;;
43817;SDS011;29868;47.360;18.984;2023-03-03T14:53:46;20.70;;;11.82;;
43817;SDS011;29868;47.360;18.984;2023-03-03T14:58:50;21.48;;;12.32;;
43817;SDS011;29868;47.360;18.984;2023-03-03T15:01:30;20.75;;;12.27;;
43817;SDS011;29868;47.360;18.984;2023-03-03T15:06:45;21.50;;;13.27;;
43817;SDS011;29868;47.360;18.984;2023-03-03T15:12:26;22.33;;;12.02;;
43817;SDS011;29868;47.360;18.984;2023-03-03T15:17:36;21.85;;;12.10;;
43817;SDS011;29868;47.360;18.984;2023-03-03T15:25:08;25.88;;;14.55;;
43817;SDS011;29868;47.360;18.984;2023-03-03T15:27:36;26.30;;;14.70;;
43817;SDS011;29868;47.360;18.984;2023-03-03T15:33:04;28.05;;;15.32;;
43817;SDS011;29868;47.360;18.984;2023-03-03T15:38:21;28.35;;;16.08;;
43817;SDS011;29868;47.360;18.984;2023-03-03T15:40:53;23.88;;;14.38;;
43817;SDS011;29868;47.360;18.984;2023-03-03T15:43:41;21.17;;;12.82;;
43817;SDS011;29868;47.360;18.984;2023-03-03T15:54:34;23.40;;;14.45;;
43817;SDS011;29868;47.360;18.984;2023-03-03T16:02:49;36.80;;;18.55;;
43817;SDS011;29868;47.360;18.984;2023-03-03T16:05:22;33.67;;;18.63;;
43817;SDS011;29868;47.360;18.984;2023-03-03T16:10:36;24.83;;;15.60;;
43817;SDS011;29868;47.360;18.984;2023-03-03T16:13:38;21.80;;;13.23;;
43817;SDS011;29868;47.360;18.984;2023-03-03T16:27:33;36.03;;;20.37;;
43817;SDS011;29868;47.360;18.984;2023-03-03T16:35:21;41.83;;;26.17;;
43817;SDS011;29868;47.360;18.984;2023-03-03T16:45:39;35.08;;;20.48;;
43817;SDS011;29868;47.360;18.984;2023-03-03T16:50:53;33.00;;;18.52;;
43817;SDS011;29868;47.360;18.984;2023-03-03T16:56:57;32.53;;;17.05;;
43817;SDS011;29868;47.360;18.984;2023-03-03T17:07:18;40.40;;;21.17;;
43817;SDS011;29868;47.360;18.984;2023-03-03T17:21:13;53.67;;;28.25;;
43817;SDS011;29868;47.360;18.984;2023-03-03T17:24:21;56.65;;;29.17;;
43817;SDS011;29868;47.360;18.984;2023-03-03T17:40:11;58.45;;;28.73;;
43817;SDS011;29868;47.360;18.984;2023-03-03T17:42:55;64.75;;;31.25;;
43817;SDS011;29868;47.360;18.984;2023-03-03T17:45:27;61.40;;;32.45;;
43817;SDS011;29868;47.360;18.984;2023-03-03T17:48:11;65.00;;;33.20;;
43817;SDS011;29868;47.360;18.984;2023-03-03T17:53:26;65.00;;;32.67;;
43817;SDS011;29868;47.360;18.984;2023-03-03T18:09:54;60.28;;;30.30;;
43817;SDS011;29868;47.360;18.984;2023-03-03T18:20:58;66.65;;;32.00;;
43817;SDS011;29868;47.360;18.984;2023-03-03T18:23:35;66.50;;;33.17;;
43817;SDS011;29868;47.360;18.984;2023-03-03T18:40:18;73.13;;;36.33;;
43817;SDS011;29868;47.360;18.984;2023-03-03T18:43:38;76.80;;;34.85;;
43817;SDS011;29868;47.360;18.984;2023-03-03T18:46:03;72.50;;;36.83;;
43817;SDS011;29868;47.360;18.984;2023-03-03T18:48:48;79.03;;;37.67;;
43817;SDS011;29868;47.360;18.984;2023-03-03T18:52:12;84.70;;;40.63;;
43817;SDS011;29868;47.360;18.984;2023-03-03T19:04:42;82.40;;;38.67;;
43817;SDS011;29868;47.360;18.984;2023-03-03T19:12:40;79.80;;;36.63;;
43817;SDS011;29868;47.360;18.984;2023-03-03T19:18:46;73.18;;;36.05;;
43817;SDS011;29868;47.360;18.984;2023-03-03T19:20:59;77.97;;;36.95;;
43817;SDS011;29868;47.360;18.984;2023-03-03T19:23:44;71.68;;;35.03;;
43817;SDS011;29868;47.360;18.984;2023-03-03T19:31:46;72.20;;;33.33;;
43817;SDS011;29868;47.360;18.984;2023-03-03T19:39:44;72.72;;;32.63;;
43817;SDS011;29868;47.360;18.984;2023-03-03T19:48:01;60.78;;;29.15;;
43817;SDS011;29868;47.360;18.984;2023-03-03T19:51:04;58.10;;;27.75;;
43817;SDS011;29868;47.360;18.984;2023-03-03T19:56:21;62.40;;;29.52;;
43817;SDS011;29868;47.360;18.984;2023-03-03T19:59:06;59.85;;;29.35;;
43817;SDS011;29868;47.360;18.984;2023-03-03T20:09:28;58.85;;;29.27;;
43817;SDS011;29868;47.360;18.984;2023-03-03T20:12:03;60.22;;;28.83;;
43817;SDS011;29868;47.360;18.984;2023-03-03T20:14:46;58.05;;;27.60;;
43817;SDS011;29868;47.360;18.984;2023-03-03T20:17:26;59.78;;;26.98;;
43817;SDS011;29868;47.360;18.984;2023-03-03T20:20:07;57.90;;;25.95;;
43817;SDS011;29868;47.360;18.984;2023-03-03T20:36:24;56.72;;;26.50;;
43817;SDS011;29868;47.360;18.984;2023-03-03T20:41:54;55.90;;;25.20;;
43817;SDS011;29868;47.360;18.984;2023-03-03T20:58:42;56.25;;;27.38;;
43817;SDS011;29868;47.360;18.984;2023-03-03T21:01:19;54.25;;;25.65;;
43817;SDS011;29868;47.360;18.984;2023-03-03T21:06:52;54.67;;;26.48;;
43817;SDS011;29868;47.360;18.984;2023-03-03T21:09:23;57.42;;;26.85;;
43817;SDS011;29868;47.360;18.984;2023-03-03T21:11:53;58.83;;;27.35;;
43817;SDS011;29868;47.360;18.984;2023-03-03T21:14:21;59.58;;;28.27;;
43817;SDS011;29868;47.360;18.984;2023-03-03T21:16:47;54.92;;;26.95;;
43817;SDS011;29868;47.360;18.984;2023-03-03T21:19:34;62.15;;;27.80;;
43817;SDS011;29868;47.360;18.984;2023-03-03T21:22:02;58.75;;;27.50;;
43817;SDS011;29868;47.360;18.984;2023-03-03T21:27:24;62.97;;;27.55;;
43817;SDS011;29868;47.360;18.984;2023-03-03T21:30:03;60.17;;;28.13;;
43817;SDS011;29868;47.360;18.984;2023-03-03T21:32:36;66.57;;;26.85;;
43817;SDS011;29868;47.360;18.984;2023-03-03T21:35:10;53.88;;;26.90;;
43817;SDS011;29868;47.360;18.984;2023-03-03T21:37:53;59.50;;;28.33;;
43817;SDS011;29868;47.360;18.984;2023-03-03T21:40:21;61.95;;;28.83;;
43817;SDS011;29868;47.360;18.984;2023-03-03T21:42:53;62.42;;;28.10;;
43817;SDS011;29868;47.360;18.984;2023-03-03T21:45:23;64.75;;;28.13;;
43817;SDS011;29868;47.360;18.984;2023-03-03T21:47:49;58.67;;;26.92;;
43817;SDS011;29868;47.360;18.984;2023-03-03T21:50:15;57.33;;;27.38;;
43817;SDS011;29868;47.360;18.984;2023-03-03T21:52:45;54.03;;;26.77;;
43817;SDS011;29868;47.360;18.984;2023-03-03T21:55:11;56.00;;;26.25;;
43817;SDS011;29868;47.360;18.984;2023-03-03T21:57:36;58.50;;;28.05;;
43817;SDS011;29868;47.360;18.984;2023-03-03T22:00:03;63.00;;;28.60;;
43817;SDS011;29868;47.360;18.984;2023-03-03T22:02:30;59.83;;;27.58;;
43817;SDS011;29868;47.360;18.984;2023-03-03T22:04:56;63.67;;;28.35;;
43817;SDS011;29868;47.360;18.984;2023-03-03T22:07:21;62.42;;;29.70;;
43817;SDS011;29868;47.360;18.984;2023-03-03T22:09:47;67.70;;;28.77;;
43817;SDS011;29868;47.360;18.984;2023-03-03T22:12:12;60.58;;;26.83;;
43817;SDS011;29868;47.360;18.984;2023-03-03T22:14:38;64.40;;;28.20;;
43817;SDS011;29868;47.360;18.984;2023-03-03T22:17:03;61.83;;;26.58;;
43817;SDS011;29868;47.360;18.984;2023-03-03T22:19:29;62.42;;;26.92;;
43817;SDS011;29868;47.360;18.984;2023-03-03T22:21:54;61.50;;;27.98;;
43817;SDS011;29868;47.360;18.984;2023-03-03T22:24:20;65.60;;;27.70;;
43817;SDS011;29868;47.360;18.984;2023-03-03T22:26:45;55.30;;;25.83;;
43817;SDS011;29868;47.360;18.984;2023-03-03T22:29:11;50.63;;;25.90;;